createdAt,value
2023-03-13T00:00:55.927Z,2.75
2023-03-13T00:02:28.851Z,2.05
2023-03-13T00:04:02.261Z,2.00
2023-03-13T00:05:36.761Z,1.83
2023-03-13T00:07:10.114Z,2.10
2023-03-13T00:10:15.182Z,1.98
2023-03-13T00:11:48.175Z,1.90
2023-03-13T00:13:21.513Z,1.95
2023-03-13T00:16:28.273Z,1.90
2023-03-13T00:18:00.287Z,2.33
2023-03-13T00:19:33.292Z,1.95
2023-03-13T00:21:08.361Z,2.00
2023-03-13T00:22:40.273Z,1.90
2023-03-13T00:24:13.300Z,1.90
2023-03-13T00:25:46.166Z,2.08
2023-03-13T00:27:19.148Z,2.03
2023-03-13T00:28:54.381Z,1.80
2023-03-13T00:30:27.448Z,2.17
2023-03-13T00:32:00.616Z,2.20
2023-03-13T00:33:33.382Z,2.00
2023-03-13T00:35:06.699Z,2.00
2023-03-13T00:38:12.706Z,1.90
2023-03-13T00:39:46.025Z,2.03
2023-03-13T00:42:51.805Z,2.60
2023-03-13T00:44:26.056Z,2.00
2023-03-13T00:45:59.251Z,2.20
2023-03-13T00:47:32.177Z,2.40
2023-03-13T00:49:04.535Z,2.42
2023-03-13T00:50:37.503Z,2.50
2023-03-13T00:52:10.351Z,2.65
2023-03-13T00:53:43.556Z,3.03
2023-03-13T00:55:16.651Z,3.30
2023-03-13T00:56:49.589Z,3.30
2023-03-13T00:58:22.588Z,3.10
2023-03-13T00:59:56.857Z,3.15
2023-03-13T01:01:32.075Z,3.60
2023-03-13T01:03:04.147Z,3.35
2023-03-13T01:04:37.115Z,2.60
2023-03-13T01:06:12.838Z,2.45
2023-03-13T01:07:45.866Z,2.40
2023-03-13T01:09:19.772Z,2.28
2023-03-13T01:10:57.512Z,2.25
2023-03-13T01:12:31.105Z,2.65
2023-03-13T01:14:06.679Z,2.40
2023-03-13T01:15:41.000Z,2.60
2023-03-13T01:17:13.965Z,2.58
2023-03-13T01:18:48.630Z,2.28
2023-03-13T01:20:21.561Z,2.60
2023-03-13T01:21:54.563Z,2.58
2023-03-13T01:23:26.712Z,2.75
2023-03-13T01:24:59.693Z,3.10
2023-03-13T01:26:33.089Z,3.42
2023-03-13T01:28:06.473Z,3.25
2023-03-13T01:31:15.109Z,2.50
2023-03-13T01:32:48.307Z,2.30
2023-03-13T01:34:21.386Z,2.70
2023-03-13T01:35:53.400Z,2.90
2023-03-13T01:37:26.395Z,3.78
2023-03-13T01:39:01.326Z,3.45
2023-03-13T01:40:41.437Z,2.63
2023-03-13T01:42:14.565Z,2.97
2023-03-13T01:43:46.929Z,3.55
2023-03-13T01:45:55.699Z,2.80
2023-03-13T01:47:30.154Z,2.65
2023-03-13T01:49:06.597Z,3.15
2023-03-13T01:50:38.567Z,2.20
2023-03-13T01:52:15.901Z,2.15
2023-03-13T01:53:53.492Z,2.10
2023-03-13T01:55:26.656Z,1.95
2023-03-13T01:57:04.317Z,1.95
2023-03-13T01:58:38.079Z,1.95
2023-03-13T02:00:16.432Z,2.03
2023-03-13T02:01:53.519Z,2.15
2023-03-13T02:03:29.453Z,1.80
2023-03-13T02:05:04.945Z,1.92
2023-03-13T02:06:42.343Z,1.92
2023-03-13T02:08:19.142Z,1.95
2023-03-13T02:09:55.621Z,2.25
2023-03-13T02:11:34.369Z,2.05
2023-03-13T02:13:06.491Z,1.70
2023-03-13T02:14:42.753Z,1.60
2023-03-13T02:16:16.059Z,1.75
2023-03-13T02:19:31.403Z,2.03
2023-03-13T02:21:12.322Z,1.92
2023-03-13T02:22:54.780Z,2.00
2023-03-13T02:24:36.568Z,1.70
2023-03-13T02:26:10.886Z,1.77
2023-03-13T02:27:45.941Z,1.73
2023-03-13T02:29:19.190Z,1.80
2023-03-13T02:30:54.234Z,1.98
2023-03-13T02:32:28.203Z,1.60
2023-03-13T02:34:03.049Z,1.60
2023-03-13T02:35:37.214Z,1.70
2023-03-13T02:37:12.899Z,1.83
2023-03-13T02:38:55.405Z,1.75
2023-03-13T02:40:31.984Z,1.90
2023-03-13T02:42:07.357Z,2.13
2023-03-13T02:43:40.294Z,1.70
2023-03-13T02:45:16.140Z,1.90
2023-03-13T02:46:52.429Z,1.58
2023-03-13T02:48:35.723Z,1.90
2023-03-13T02:50:10.030Z,2.00
2023-03-13T02:51:45.883Z,2.03
2023-03-13T02:53:18.963Z,2.00
2023-03-13T02:54:56.239Z,1.98
2023-03-13T02:56:32.913Z,2.10
2023-03-13T02:58:06.304Z,2.17
2023-03-13T03:01:11.072Z,1.92
2023-03-13T03:02:44.465Z,1.70
2023-03-13T03:05:50.314Z,1.90
2023-03-13T03:07:23.272Z,2.08
2023-03-13T03:08:56.214Z,1.90
2023-03-13T03:10:28.229Z,2.40
2023-03-13T03:12:01.155Z,2.42
2023-03-13T03:13:35.497Z,2.08
2023-03-13T03:15:09.572Z,2.00
2023-03-13T03:16:43.083Z,2.15
2023-03-13T03:18:25.184Z,1.73
2023-03-13T03:19:58.103Z,2.42
2023-03-13T03:21:30.102Z,2.03
2023-03-13T03:23:03.031Z,1.90
2023-03-13T03:24:36.084Z,1.95
2023-03-13T03:26:09.682Z,1.60
2023-03-13T03:27:42.690Z,2.00
2023-03-13T03:29:17.033Z,2.60
2023-03-13T03:30:50.020Z,2.08
2023-03-13T03:32:23.049Z,2.40
2023-03-13T03:33:55.059Z,1.75
2023-03-13T03:35:28.417Z,2.10
2023-03-13T03:38:33.580Z,2.22
2023-03-13T03:40:07.664Z,2.38
2023-03-13T03:41:39.915Z,2.35
2023-03-13T03:43:12.868Z,2.10
2023-03-13T03:44:47.184Z,2.20
2023-03-13T03:46:20.154Z,1.80
2023-03-13T03:47:52.031Z,2.13
2023-03-13T03:49:25.059Z,1.77
2023-03-13T03:50:58.060Z,2.33
2023-03-13T03:52:30.979Z,1.85
2023-03-13T03:54:03.931Z,1.80
2023-03-13T03:55:37.133Z,2.00
2023-03-13T03:57:09.133Z,2.28
2023-03-13T03:58:42.161Z,1.92
2023-03-13T04:00:18.999Z,1.60
2023-03-13T04:01:51.963Z,2.15
2023-03-13T04:03:25.191Z,2.20
2023-03-13T04:04:58.123Z,1.90
2023-03-13T04:06:31.939Z,1.70
2023-03-13T04:08:04.953Z,1.92
2023-03-13T04:09:37.877Z,2.25
2023-03-13T04:11:10.754Z,1.98
2023-03-13T04:12:43.849Z,1.60
2023-03-13T04:14:15.763Z,2.53
2023-03-13T04:15:50.055Z,1.83
2023-03-13T04:17:23.441Z,1.73
2023-03-13T04:20:29.318Z,2.03
2023-03-13T04:22:02.215Z,1.85
2023-03-13T04:23:35.175Z,1.90
2023-03-13T04:25:08.051Z,1.48
2023-03-13T04:26:40.995Z,1.42
2023-03-13T04:28:13.872Z,2.13
2023-03-13T04:29:45.968Z,2.50
2023-03-13T04:31:20.433Z,1.90
2023-03-13T04:32:53.400Z,1.88
2023-03-13T04:34:29.027Z,1.85
2023-03-13T04:36:02.121Z,1.63
2023-03-13T04:37:35.581Z,1.65
2023-03-13T04:40:41.175Z,3.08
2023-03-13T04:42:14.731Z,2.03
2023-03-13T04:43:47.591Z,2.03
2023-03-13T04:45:20.545Z,1.60
2023-03-13T04:46:58.367Z,1.45
2023-03-13T04:48:31.299Z,1.98
2023-03-13T04:50:04.364Z,1.70
2023-03-13T04:51:37.313Z,1.80
2023-03-13T04:53:10.295Z,2.22
2023-03-13T04:54:43.198Z,1.98
2023-03-13T04:56:32.493Z,2.50
2023-03-13T04:58:14.386Z,1.77
2023-03-13T04:59:47.389Z,1.58
2023-03-13T05:01:20.456Z,2.47
2023-03-13T05:02:54.931Z,2.30
2023-03-13T05:04:28.002Z,2.40
2023-03-13T05:05:59.901Z,1.83
2023-03-13T05:07:32.846Z,2.08
2023-03-13T05:09:06.269Z,1.92
2023-03-13T05:12:11.899Z,2.20
2023-03-13T05:13:44.807Z,5.00
2023-03-13T05:15:17.873Z,3.00
2023-03-13T05:16:50.745Z,2.63
2023-03-13T05:18:25.236Z,2.20
2023-03-13T05:19:58.084Z,2.28
2023-03-13T05:21:31.138Z,3.42
2023-03-13T05:23:04.034Z,2.00
2023-03-13T05:24:36.891Z,1.77
2023-03-13T05:26:09.886Z,2.30
2023-03-13T05:27:42.769Z,2.35
2023-03-13T05:29:15.761Z,2.00
2023-03-13T05:30:48.892Z,2.10
2023-03-13T05:32:21.913Z,1.75
2023-03-13T05:33:56.233Z,1.50
2023-03-13T05:35:29.210Z,1.83
2023-03-13T05:37:02.360Z,1.83
2023-03-13T05:38:35.329Z,1.90
2023-03-13T05:40:09.774Z,4.05
2023-03-13T05:41:42.669Z,2.85
2023-03-13T05:43:14.618Z,1.95
2023-03-13T05:44:47.608Z,2.88
2023-03-13T05:46:20.488Z,1.73
2023-03-13T05:47:53.332Z,2.45
2023-03-13T05:49:27.583Z,1.75
2023-03-13T05:51:00.566Z,1.50
2023-03-13T05:52:34.131Z,1.92
2023-03-13T05:54:07.136Z,2.00
2023-03-13T05:55:40.113Z,2.15
2023-03-13T05:57:13.033Z,1.95
2023-03-13T05:58:46.026Z,2.58
2023-03-13T06:00:19.925Z,2.30
2023-03-13T06:01:52.825Z,1.90
2023-03-13T06:03:25.742Z,2.00
2023-03-13T06:05:00.225Z,2.28
2023-03-13T06:06:32.195Z,2.20
2023-03-13T06:08:05.423Z,2.20
2023-03-13T06:09:38.599Z,2.30
2023-03-13T06:11:11.753Z,3.05
2023-03-13T06:12:44.667Z,3.70
2023-03-13T06:14:18.083Z,3.40
2023-03-13T06:15:54.636Z,3.30
2023-03-13T06:17:27.733Z,3.25
2023-03-13T06:19:00.706Z,3.40
2023-03-13T06:20:35.109Z,2.70
2023-03-13T06:22:08.198Z,2.65
2023-03-13T06:23:42.285Z,2.20
2023-03-13T06:25:15.613Z,2.83
2023-03-13T06:28:23.361Z,2.05
2023-03-13T06:29:56.526Z,2.10
2023-03-13T06:31:29.718Z,2.40
2023-03-13T06:33:03.030Z,2.17
2023-03-13T06:36:11.293Z,1.77
2023-03-13T06:37:44.864Z,1.60
2023-03-13T06:39:18.214Z,2.10
2023-03-13T06:42:24.663Z,2.30
2023-03-13T06:43:57.757Z,2.45
2023-03-13T06:45:31.213Z,2.80
2023-03-13T06:48:37.806Z,3.45
2023-03-13T06:50:12.087Z,3.15
2023-03-13T06:51:46.604Z,2.42
2023-03-13T06:53:21.802Z,2.50
2023-03-13T06:54:54.763Z,2.35
2023-03-13T06:56:28.252Z,2.90
2023-03-13T06:58:01.560Z,3.65
2023-03-13T06:59:34.576Z,3.78
2023-03-13T07:01:09.154Z,3.70
2023-03-13T07:02:42.287Z,2.78
2023-03-13T07:04:16.399Z,3.00
2023-03-13T07:05:49.516Z,2.97
2023-03-13T07:07:31.714Z,2.10
2023-03-13T07:09:05.991Z,4.35
2023-03-13T07:10:38.991Z,3.30
2023-03-13T07:12:12.006Z,3.22
2023-03-13T07:13:45.259Z,3.58
2023-03-13T07:15:18.472Z,2.67
2023-03-13T07:16:51.689Z,3.50
2023-03-13T07:19:57.986Z,2.78
2023-03-13T07:21:31.213Z,1.88
2023-03-13T07:23:05.624Z,1.90
2023-03-13T07:24:38.719Z,1.90
2023-03-13T07:26:14.163Z,2.33
2023-03-13T07:27:47.178Z,2.67
2023-03-13T07:29:20.277Z,2.80
2023-03-13T07:30:53.848Z,2.63
2023-03-13T07:32:26.966Z,3.45
2023-03-13T07:34:00.555Z,3.20
2023-03-13T07:37:06.668Z,3.42
2023-03-13T07:38:41.283Z,2.85
2023-03-13T07:40:14.519Z,2.65
2023-03-13T07:41:47.728Z,4.20
2023-03-13T07:43:20.995Z,3.88
2023-03-13T07:44:55.064Z,3.90
2023-03-13T07:46:28.355Z,4.30
2023-03-13T07:49:39.374Z,2.65
2023-03-13T07:51:16.451Z,3.28
2023-03-13T07:52:49.597Z,2.75
2023-03-13T07:54:24.245Z,2.30
2023-03-13T07:55:59.755Z,2.08
2023-03-13T07:57:32.910Z,2.13
2023-03-13T07:59:06.851Z,2.05
2023-03-13T08:00:40.051Z,1.80
2023-03-13T08:02:13.936Z,2.78
2023-03-13T08:03:49.265Z,2.05
2023-03-13T08:05:22.483Z,2.90
2023-03-13T08:06:55.595Z,3.40
2023-03-13T08:08:29.112Z,3.00
2023-03-13T08:10:03.525Z,2.60
2023-03-13T08:11:36.597Z,2.17
2023-03-13T08:13:09.544Z,2.53
2023-03-13T08:14:42.445Z,2.67
2023-03-13T08:16:16.953Z,2.70
2023-03-13T08:17:50.538Z,2.50
2023-03-13T08:19:23.462Z,2.47
2023-03-13T08:20:56.417Z,2.10
2023-03-13T08:22:29.309Z,2.85
2023-03-13T08:24:05.990Z,2.60
2023-03-13T08:25:40.321Z,1.70
2023-03-13T08:27:13.258Z,1.40
2023-03-13T08:28:47.727Z,1.55
2023-03-13T08:30:21.019Z,2.22
2023-03-13T08:31:53.944Z,1.73
2023-03-13T08:33:26.897Z,2.22
2023-03-13T08:34:59.844Z,1.48
2023-03-13T08:36:34.108Z,2.10
2023-03-13T08:38:08.197Z,1.48
2023-03-13T08:39:41.218Z,1.98
2023-03-13T08:41:17.330Z,2.20
2023-03-13T08:42:50.249Z,2.33
2023-03-13T08:44:23.077Z,2.15
2023-03-13T08:45:56.842Z,2.78
2023-03-13T08:47:29.838Z,3.08
2023-03-13T08:49:04.290Z,2.70
2023-03-13T08:50:37.303Z,3.30
2023-03-13T08:52:10.197Z,3.08
2023-03-13T08:53:44.517Z,2.33
2023-03-13T08:55:17.619Z,1.83
2023-03-13T08:56:51.948Z,1.45
2023-03-13T08:58:24.994Z,2.20
2023-03-13T08:59:57.977Z,2.35
2023-03-13T09:01:32.907Z,2.47
2023-03-13T09:03:05.873Z,3.20
2023-03-13T09:04:39.019Z,4.32
2023-03-13T09:06:13.148Z,4.50
2023-03-13T09:07:46.020Z,4.53
2023-03-13T09:09:18.933Z,3.20
2023-03-13T09:10:56.612Z,2.53
2023-03-13T09:12:31.737Z,3.08
2023-03-13T09:14:04.885Z,4.10
2023-03-13T09:15:38.102Z,2.60
2023-03-13T09:17:10.995Z,1.73
2023-03-13T09:18:44.457Z,1.80
2023-03-13T09:20:18.869Z,1.25
2023-03-13T09:21:51.775Z,1.50
2023-03-13T09:23:25.770Z,1.38
2023-03-13T09:24:58.688Z,1.30
2023-03-13T09:26:32.072Z,1.17
2023-03-13T09:28:06.568Z,1.30
2023-03-13T09:29:41.522Z,1.17
2023-03-13T09:31:16.569Z,1.30
2023-03-13T09:32:49.592Z,1.45
2023-03-13T09:34:23.305Z,0.90
2023-03-13T09:35:56.226Z,0.88
2023-03-13T09:37:29.199Z,1.00
2023-03-13T09:39:02.546Z,1.10
2023-03-13T09:42:16.586Z,1.20
2023-03-13T09:43:54.604Z,1.10
2023-03-13T09:45:34.033Z,1.20
2023-03-13T09:47:11.941Z,1.45
2023-03-13T09:48:47.021Z,1.60
2023-03-13T09:50:24.584Z,1.30
2023-03-13T09:52:05.706Z,1.40
2023-03-13T09:53:44.307Z,1.23
2023-03-13T09:55:22.329Z,1.58
2023-03-13T09:56:59.685Z,1.50
2023-03-13T09:58:35.330Z,1.15
2023-03-13T10:00:15.281Z,0.85
2023-03-13T10:01:50.368Z,1.17
2023-03-13T10:03:28.520Z,1.10
2023-03-13T10:05:11.544Z,0.75
2023-03-13T10:06:45.839Z,1.10
2023-03-13T10:08:20.545Z,1.05
2023-03-13T10:09:53.712Z,2.08
2023-03-13T10:11:30.541Z,1.20
2023-03-13T10:13:15.485Z,0.90
2023-03-13T10:14:56.975Z,0.90
2023-03-13T10:16:36.018Z,0.90
2023-03-13T10:18:17.752Z,0.90
2023-03-13T10:19:58.813Z,0.90
2023-03-13T10:21:35.453Z,1.08
2023-03-13T10:23:14.719Z,1.00
2023-03-13T10:24:53.641Z,0.95
2023-03-13T10:26:30.607Z,1.10
2023-03-13T10:28:03.764Z,0.85
2023-03-13T10:29:38.257Z,0.70
2023-03-13T10:31:18.600Z,0.80
2023-03-13T10:33:01.703Z,0.90
2023-03-13T10:34:49.786Z,0.80
2023-03-13T10:36:23.669Z,1.10
2023-03-13T10:38:04.344Z,1.00
2023-03-13T10:39:37.236Z,1.00
2023-03-13T10:41:21.657Z,1.10
2023-03-13T10:43:01.012Z,1.00
2023-03-13T10:44:34.906Z,1.20
2023-03-13T10:46:10.079Z,1.10
2023-03-13T10:47:43.223Z,0.90
2023-03-13T10:49:19.928Z,1.00
2023-03-13T10:50:57.285Z,1.20
2023-03-13T10:52:33.724Z,1.98
2023-03-13T10:54:16.944Z,1.42
2023-03-13T10:55:50.541Z,1.00
2023-03-13T10:57:48.288Z,1.10
2023-03-13T11:02:06.676Z,1.00
2023-03-13T11:03:53.030Z,1.00
2023-03-13T11:05:39.674Z,1.20
2023-03-13T11:07:31.961Z,1.23
2023-03-13T11:09:13.607Z,1.02
2023-03-13T11:11:04.545Z,1.00
2023-03-13T11:13:04.693Z,1.20
2023-03-13T11:15:16.163Z,1.15
2023-03-13T11:16:51.424Z,1.10
2023-03-13T11:18:31.547Z,0.90
2023-03-13T11:20:15.637Z,1.00
2023-03-13T11:22:08.500Z,1.23
2023-03-13T11:23:44.858Z,0.90
2023-03-13T11:25:27.130Z,1.17
2023-03-13T11:27:07.277Z,0.98
2023-03-13T11:28:51.665Z,1.40
2023-03-13T11:30:46.098Z,1.30
2023-03-13T11:32:24.959Z,1.40
2023-03-13T11:34:05.486Z,1.50
2023-03-13T11:35:43.312Z,1.30
2023-03-13T11:37:20.308Z,1.33
2023-03-13T11:38:56.497Z,1.10
2023-03-13T11:40:33.739Z,1.10
2023-03-13T11:42:19.919Z,1.20
2023-03-13T11:44:09.528Z,1.33
2023-03-13T11:46:05.085Z,1.10
2023-03-13T11:47:51.058Z,1.60
2023-03-13T11:49:39.651Z,1.48
2023-03-13T11:51:21.673Z,1.65
2023-03-13T11:53:07.241Z,1.58
2023-03-13T11:54:57.589Z,1.10
2023-03-13T11:56:36.241Z,1.40
2023-03-13T11:58:24.272Z,1.25
2023-03-13T12:00:15.247Z,1.27
2023-03-13T12:01:53.854Z,1.30
2023-03-13T12:03:36.671Z,1.23
2023-03-13T12:05:12.159Z,1.30
2023-03-13T12:06:50.836Z,1.35
2023-03-13T12:08:29.707Z,1.20
2023-03-13T12:10:05.094Z,1.15
2023-03-13T12:11:43.783Z,1.30
2023-03-13T12:13:22.089Z,1.60
2023-03-13T12:14:59.920Z,1.60
2023-03-13T12:16:41.946Z,1.50
2023-03-13T12:18:21.488Z,1.55
2023-03-13T12:19:59.688Z,1.55
2023-03-13T12:21:39.036Z,1.45
2023-03-13T12:23:19.560Z,1.38
2023-03-13T12:24:59.332Z,1.98
2023-03-13T12:26:41.626Z,1.42
2023-03-13T12:28:24.913Z,1.50
2023-03-13T12:30:02.814Z,1.40
2023-03-13T12:31:40.377Z,1.60
2023-03-13T12:33:20.506Z,1.60
2023-03-13T12:35:01.442Z,1.55
2023-03-13T12:36:45.409Z,1.92
2023-03-13T12:38:23.900Z,1.77
2023-03-13T12:40:02.111Z,1.95
2023-03-13T12:41:41.963Z,2.20
2023-03-13T12:43:21.141Z,2.00
2023-03-13T12:44:55.046Z,1.70
2023-03-13T12:46:42.172Z,1.42
2023-03-13T12:48:57.553Z,1.90
2023-03-13T12:50:46.081Z,2.20
2023-03-13T12:52:46.454Z,1.77
2023-03-13T12:54:48.869Z,1.70
2023-03-13T12:56:46.463Z,2.05
2023-03-13T12:58:38.954Z,1.58
2023-03-13T13:00:17.888Z,1.73
2023-03-13T13:01:55.303Z,1.67
2023-03-13T13:03:33.768Z,1.60
2023-03-13T13:05:08.044Z,2.10
2023-03-13T13:06:56.870Z,1.80
2023-03-13T13:08:34.535Z,1.85
2023-03-13T13:10:21.984Z,1.60
2023-03-13T13:11:58.007Z,1.65
2023-03-13T13:13:31.997Z,2.10
2023-03-13T13:15:17.151Z,1.90
2023-03-13T13:16:52.801Z,2.67
2023-03-13T13:18:28.464Z,2.30
2023-03-13T13:20:40.028Z,2.30
2023-03-13T13:22:52.598Z,2.20
2023-03-13T13:24:50.071Z,3.53
2023-03-13T13:26:39.984Z,1.85
2023-03-13T13:28:27.578Z,1.88
2023-03-13T13:30:01.821Z,1.70
2023-03-13T13:31:59.441Z,2.22
2023-03-13T13:33:38.104Z,1.80
2023-03-13T13:35:25.127Z,1.98
2023-03-13T13:36:59.315Z,2.40
2023-03-13T13:38:37.069Z,1.80
2023-03-13T13:40:27.022Z,1.70
2023-03-13T13:42:00.144Z,1.95
2023-03-13T13:43:36.121Z,1.70
2023-03-13T13:45:25.884Z,2.30
2023-03-13T13:47:01.885Z,2.00
2023-03-13T13:48:37.962Z,3.00
2023-03-13T13:50:19.449Z,2.70
2023-03-13T13:52:35.213Z,1.98
2023-03-13T13:54:33.292Z,2.20
2023-03-13T13:56:27.919Z,1.80
2023-03-13T13:58:04.152Z,2.20
2023-03-13T13:59:48.005Z,2.05
2023-03-13T14:01:21.438Z,2.10
2023-03-13T14:02:56.118Z,1.77
2023-03-13T14:04:31.419Z,1.70
2023-03-13T14:06:15.355Z,2.47
2023-03-13T14:07:53.026Z,2.50
2023-03-13T14:09:37.304Z,2.70
2023-03-13T14:11:24.948Z,1.80
2023-03-13T14:12:59.262Z,2.22
2023-03-13T14:14:32.188Z,1.95
2023-03-13T14:16:24.740Z,1.80
2023-03-13T14:18:00.407Z,1.92
2023-03-13T14:19:41.690Z,2.25
2023-03-13T14:21:14.838Z,1.73
2023-03-13T14:22:48.749Z,1.65
2023-03-13T14:24:21.754Z,1.80
2023-03-13T14:25:54.668Z,2.20
2023-03-13T14:27:27.581Z,2.03
2023-03-13T14:29:02.767Z,2.40
2023-03-13T14:30:35.948Z,1.75
2023-03-13T14:32:10.946Z,2.20
2023-03-13T14:33:43.920Z,3.25
2023-03-13T14:35:19.294Z,1.40
2023-03-13T14:37:01.451Z,1.70
2023-03-13T14:38:41.602Z,1.65
2023-03-13T14:40:22.646Z,1.52
2023-03-13T14:41:56.146Z,1.52
2023-03-13T14:43:33.484Z,1.50
2023-03-13T14:45:14.507Z,2.03
2023-03-13T14:46:47.484Z,1.80
2023-03-13T14:48:24.630Z,1.80
2023-03-13T14:49:59.806Z,1.65
2023-03-13T14:51:32.983Z,1.60
2023-03-13T14:53:13.826Z,1.70
2023-03-13T14:54:54.828Z,1.75
2023-03-13T14:56:35.507Z,2.17
2023-03-13T14:58:28.977Z,1.80
2023-03-13T15:00:30.894Z,1.30
2023-03-13T15:02:15.124Z,1.48
2023-03-13T15:03:49.602Z,2.47
2023-03-13T15:05:33.506Z,1.80
2023-03-13T15:07:10.098Z,2.22
2023-03-13T15:08:44.955Z,2.10
2023-03-13T15:10:23.109Z,1.63
2023-03-13T15:11:59.227Z,2.05
2023-03-13T15:13:37.039Z,1.77
2023-03-13T15:15:11.432Z,1.80
2023-03-13T15:16:44.538Z,1.83
2023-03-13T15:18:20.392Z,1.75
2023-03-13T15:19:56.335Z,1.70
2023-03-13T15:21:32.079Z,1.30
2023-03-13T15:23:10.520Z,1.80
2023-03-13T15:24:48.414Z,2.17
2023-03-13T15:26:26.077Z,2.13
2023-03-13T15:27:59.419Z,2.22
2023-03-13T15:29:32.377Z,3.30
2023-03-13T15:31:05.778Z,2.45
2023-03-13T15:32:42.491Z,3.63
2023-03-13T15:34:16.857Z,2.85
2023-03-13T15:35:52.017Z,2.65
2023-03-13T15:37:25.166Z,3.88
2023-03-13T15:38:58.265Z,3.00
2023-03-13T15:40:31.877Z,3.10
2023-03-13T15:42:05.181Z,3.67
2023-03-13T15:45:11.777Z,2.75
2023-03-13T15:46:44.764Z,2.03
2023-03-13T15:48:19.653Z,2.50
2023-03-13T15:49:52.638Z,1.85
2023-03-13T15:51:27.700Z,1.92
2023-03-13T15:53:01.816Z,1.80
2023-03-13T15:54:34.712Z,2.53
2023-03-13T15:56:15.583Z,3.42
2023-03-13T15:57:51.443Z,3.33
2023-03-13T15:59:24.440Z,4.50
2023-03-13T16:00:58.084Z,3.38
2023-03-13T16:02:31.138Z,2.88
2023-03-13T16:04:04.239Z,3.58
2023-03-13T16:05:37.151Z,3.67
2023-03-13T16:07:12.970Z,3.30
2023-03-13T16:08:46.408Z,2.55
2023-03-13T16:10:25.096Z,1.80
2023-03-13T16:11:58.913Z,1.80
2023-03-13T16:13:40.119Z,2.33
2023-03-13T16:15:13.681Z,2.10
2023-03-13T16:16:48.910Z,1.80
2023-03-13T16:18:34.843Z,1.50
2023-03-13T16:20:16.924Z,2.30
2023-03-13T16:21:50.634Z,1.80
2023-03-13T16:23:24.999Z,2.05
2023-03-13T16:24:58.307Z,1.50
2023-03-13T16:28:07.438Z,1.70
2023-03-13T16:29:40.431Z,1.73
2023-03-13T16:31:21.935Z,1.63
2023-03-13T16:32:55.044Z,1.80
2023-03-13T16:34:28.769Z,1.70
2023-03-13T16:36:01.757Z,1.83
2023-03-13T16:37:34.761Z,3.15
2023-03-13T16:39:14.803Z,2.10
2023-03-13T16:40:47.779Z,1.58
2023-03-13T16:42:20.728Z,1.60
2023-03-13T16:43:53.614Z,1.73
2023-03-13T16:45:26.882Z,1.70
2023-03-13T16:48:39.290Z,1.77
2023-03-13T16:50:21.904Z,2.10
2023-03-13T16:51:54.857Z,1.58
2023-03-13T16:53:27.820Z,1.75
2023-03-13T16:55:02.153Z,1.60
2023-03-13T16:56:36.838Z,1.70
2023-03-13T16:58:13.612Z,1.55
2023-03-13T16:59:46.645Z,1.60
2023-03-13T17:01:19.962Z,1.70
2023-03-13T17:04:25.939Z,1.83
2023-03-13T17:05:58.929Z,2.55
2023-03-13T17:07:31.822Z,1.73
2023-03-13T17:09:07.263Z,11.52
2023-03-13T17:10:41.629Z,2.83
2023-03-13T17:12:14.671Z,1.92
2023-03-13T17:13:49.031Z,2.15
2023-03-13T17:15:22.475Z,2.17
2023-03-13T17:16:55.678Z,1.80
2023-03-13T17:18:28.611Z,1.92
2023-03-13T17:20:01.709Z,2.00
2023-03-13T17:21:36.682Z,1.60
2023-03-13T17:23:11.089Z,1.98
2023-03-13T17:24:44.684Z,1.92
2023-03-13T17:26:21.778Z,2.00
2023-03-13T17:27:54.931Z,2.50
2023-03-13T17:29:27.951Z,1.95
2023-03-13T17:31:00.988Z,2.42
2023-03-13T17:32:34.104Z,2.55
2023-03-13T17:34:07.868Z,2.08
2023-03-13T17:35:40.882Z,1.80
2023-03-13T17:37:16.629Z,1.55
2023-03-13T17:38:51.316Z,1.90
2023-03-13T17:40:26.845Z,1.90
2023-03-13T17:42:04.133Z,2.22
2023-03-13T17:43:37.116Z,1.70
2023-03-13T17:45:11.017Z,1.95
2023-03-13T17:46:46.482Z,2.10
2023-03-13T17:48:19.534Z,2.22
2023-03-13T17:49:52.496Z,1.92
2023-03-13T17:51:27.029Z,1.80
2023-03-13T17:52:59.992Z,1.90
2023-03-13T17:54:32.952Z,2.10
2023-03-13T17:56:16.121Z,1.88
2023-03-13T17:57:52.150Z,1.70
2023-03-13T17:59:25.135Z,1.65
2023-03-13T18:00:59.555Z,1.45
2023-03-13T18:02:32.651Z,1.60
2023-03-13T18:04:05.941Z,1.75
2023-03-13T18:07:18.468Z,2.10
2023-03-13T18:08:53.112Z,1.50
2023-03-13T18:10:27.797Z,1.60
2023-03-13T18:12:00.683Z,1.70
2023-03-13T18:13:36.942Z,1.60
2023-03-13T18:15:10.879Z,1.77
2023-03-13T18:16:47.779Z,1.70
2023-03-13T18:18:20.878Z,1.77
2023-03-13T18:19:53.949Z,1.67
2023-03-13T18:21:26.918Z,1.83
2023-03-13T18:23:00.888Z,1.90
2023-03-13T18:24:34.094Z,1.65
2023-03-13T18:26:20.969Z,1.70
2023-03-13T18:27:54.077Z,1.98
2023-03-13T18:29:29.213Z,2.17
2023-03-13T18:31:02.290Z,1.90
2023-03-13T18:32:35.241Z,2.22
2023-03-13T18:34:08.450Z,1.90
2023-03-13T18:35:41.422Z,1.52
2023-03-13T18:37:22.566Z,2.47
2023-03-13T18:38:55.565Z,1.80
2023-03-13T18:40:30.184Z,2.00
2023-03-13T18:42:03.184Z,1.90
2023-03-13T18:43:36.152Z,1.90
2023-03-13T18:45:15.806Z,1.83
2023-03-13T18:46:49.310Z,1.90
2023-03-13T18:48:23.074Z,1.60
2023-03-13T18:49:56.053Z,1.73
2023-03-13T18:51:30.734Z,1.67
2023-03-13T18:53:03.779Z,1.60
2023-03-13T18:54:36.751Z,1.90
2023-03-13T18:56:21.382Z,1.60
2023-03-13T18:57:54.509Z,1.67
2023-03-13T18:59:27.471Z,1.70
2023-03-13T19:01:01.809Z,4.43
2023-03-13T19:02:34.830Z,6.78
2023-03-13T19:04:07.875Z,1.98
2023-03-13T19:05:40.852Z,2.30
2023-03-13T19:07:16.286Z,1.70
2023-03-13T19:08:51.307Z,1.80
2023-03-13T19:10:26.097Z,2.17
2023-03-13T19:11:59.094Z,2.17
2023-03-13T19:13:35.220Z,1.85
2023-03-13T19:15:09.146Z,1.70
2023-03-13T19:16:46.811Z,2.10
2023-03-13T19:18:19.743Z,1.95
2023-03-13T19:19:57.071Z,1.70
2023-03-13T19:21:32.294Z,1.98
2023-03-13T19:23:05.222Z,1.80
2023-03-13T19:24:38.178Z,2.53
2023-03-13T19:26:18.255Z,2.10
2023-03-13T19:27:51.183Z,1.90
2023-03-13T19:29:26.000Z,2.47
2023-03-13T19:30:58.986Z,2.10
2023-03-13T19:32:33.590Z,2.00
2023-03-13T19:34:06.749Z,2.10
2023-03-13T19:35:39.772Z,2.72
2023-03-13T19:37:14.064Z,2.10
2023-03-13T19:38:47.269Z,1.90
2023-03-13T19:40:22.621Z,1.70
2023-03-13T19:41:57.115Z,1.70
2023-03-13T19:43:31.267Z,2.00
2023-03-13T19:45:05.975Z,1.63
2023-03-13T19:46:43.230Z,1.70
2023-03-13T19:48:17.560Z,1.90
2023-03-13T19:49:52.209Z,1.52
2023-03-13T19:51:26.841Z,1.60
2023-03-13T19:52:59.875Z,1.52
2023-03-13T19:54:32.801Z,1.60
2023-03-13T19:56:15.153Z,1.40
2023-03-13T19:57:48.075Z,1.67
2023-03-13T19:59:23.114Z,1.70
2023-03-13T20:00:57.391Z,1.70
2023-03-13T20:02:31.884Z,1.70
2023-03-13T20:04:06.446Z,1.90
2023-03-13T20:05:39.466Z,1.83
2023-03-13T20:07:12.533Z,2.10
2023-03-13T20:08:46.144Z,1.70
2023-03-13T20:10:19.228Z,1.88
2023-03-13T20:11:52.320Z,1.60
2023-03-13T20:13:25.292Z,2.10
2023-03-13T20:14:58.385Z,1.90
2023-03-13T20:16:33.723Z,1.70
2023-03-13T20:18:07.970Z,2.00
2023-03-13T20:19:42.476Z,2.55
2023-03-13T20:21:17.158Z,2.70
2023-03-13T20:22:50.098Z,2.45
2023-03-13T20:24:23.132Z,2.60
2023-03-13T20:25:56.137Z,2.70
2023-03-13T20:27:29.104Z,2.50
2023-03-13T20:29:02.163Z,2.55
2023-03-13T20:30:35.165Z,2.33
2023-03-13T20:32:08.374Z,2.20
2023-03-13T20:33:41.518Z,1.90
2023-03-13T20:35:15.979Z,2.10
2023-03-13T20:36:48.963Z,2.05
2023-03-13T20:38:21.927Z,2.33
2023-03-13T20:39:54.811Z,1.90
2023-03-13T20:41:31.067Z,2.13
2023-03-13T20:43:04.342Z,2.45
2023-03-13T20:44:37.291Z,2.42
2023-03-13T20:46:10.263Z,2.30
2023-03-13T20:47:43.261Z,2.65
2023-03-13T20:49:16.270Z,2.50
2023-03-13T20:50:53.582Z,2.55
2023-03-13T20:52:26.597Z,2.45
2023-03-13T20:53:59.660Z,2.70
2023-03-13T20:55:32.828Z,2.83
2023-03-13T20:57:06.212Z,2.90
2023-03-13T21:00:13.167Z,2.53
2023-03-13T21:01:46.161Z,2.80
2023-03-13T21:03:19.495Z,2.50
2023-03-13T21:06:27.306Z,3.13
2023-03-13T21:08:00.189Z,3.35
2023-03-13T21:09:34.094Z,3.53
2023-03-13T21:11:13.190Z,2.78
2023-03-13T21:12:46.617Z,2.75
2023-03-13T21:14:19.633Z,3.00
2023-03-13T21:15:52.585Z,3.00
2023-03-13T21:17:25.734Z,3.20
2023-03-13T21:18:59.052Z,3.03
2023-03-13T21:22:06.139Z,3.40
2023-03-13T21:23:39.825Z,3.05
2023-03-13T21:25:13.162Z,2.72
2023-03-13T21:28:18.972Z,3.40
2023-03-13T21:29:51.888Z,3.45
2023-03-13T21:31:25.059Z,3.33
2023-03-13T21:32:58.195Z,3.15
2023-03-13T21:34:31.200Z,2.95
2023-03-13T21:36:04.452Z,3.20
2023-03-13T21:39:12.422Z,3.08
2023-03-13T21:40:45.613Z,2.90
2023-03-13T21:42:18.896Z,2.60
2023-03-13T21:45:25.051Z,1.80
2023-03-13T21:46:58.129Z,1.83
2023-03-13T21:48:31.056Z,1.88
2023-03-13T21:50:05.071Z,1.75
2023-03-13T21:51:38.032Z,1.50
2023-03-13T21:53:12.307Z,2.05
2023-03-13T21:54:45.588Z,2.05
2023-03-13T21:57:51.324Z,1.40
2023-03-13T21:59:26.015Z,1.75
2023-03-13T22:00:59.147Z,1.52
2023-03-13T22:02:32.100Z,2.10
2023-03-13T22:04:05.108Z,1.90
2023-03-13T22:05:42.426Z,1.80
2023-03-13T22:07:15.359Z,1.20
2023-03-13T22:08:50.233Z,1.00
2023-03-13T22:10:23.375Z,0.80